createdAt,value
2017-11-16T00:00:48.800Z,101496
2017-11-16T00:03:18.292Z,101497
2017-11-16T00:05:46.822Z,101486
2017-11-16T00:08:16.389Z,101485
2017-11-16T00:10:47.703Z,101487
2017-11-16T00:13:16.951Z,101482
2017-11-16T00:15:45.978Z,101485
2017-11-16T00:18:15.374Z,101485
2017-11-16T00:20:45.134Z,101487
2017-11-16T00:23:13.907Z,101496
2017-11-16T00:25:42.424Z,101499
2017-11-16T00:28:12.033Z,101505
2017-11-16T00:30:40.557Z,101498
2017-11-16T00:33:09.213Z,101502
2017-11-16T00:35:41.969Z,101503
2017-11-16T00:38:10.740Z,101500
2017-11-16T00:40:39.562Z,101501
2017-11-16T00:43:08.021Z,101495
2017-11-16T00:45:37.527Z,101498
2017-11-16T00:48:06.234Z,101495
2017-11-16T00:50:36.428Z,101503
2017-11-16T00:53:06.524Z,101506
2017-11-16T00:55:35.576Z,101499
2017-11-16T00:58:04.140Z,101508
2017-11-16T01:00:32.737Z,101502
2017-11-16T01:03:02.041Z,101507
2017-11-16T01:05:30.814Z,101503
2017-11-16T01:08:01.191Z,101497
2017-11-16T01:10:29.752Z,101495
2017-11-16T01:12:58.890Z,101497
2017-11-16T01:15:28.702Z,101495
2017-11-16T01:17:57.871Z,101491
2017-11-16T01:20:26.211Z,101478
2017-11-16T01:22:55.010Z,101487
2017-11-16T01:25:24.091Z,101483
2017-11-16T01:27:52.878Z,101483
2017-11-16T01:30:21.474Z,101484
2017-11-16T01:32:50.614Z,101481
2017-11-16T01:35:21.196Z,101476
2017-11-16T01:37:50.538Z,101485
2017-11-16T01:40:18.915Z,101487
2017-11-16T01:42:47.614Z,101477
2017-11-16T01:45:16.287Z,101477
2017-11-16T01:47:47.837Z,101479
2017-11-16T01:50:19.940Z,101487
2017-11-16T01:52:51.258Z,101483
2017-11-16T01:55:21.101Z,101484
2017-11-16T01:57:52.136Z,101479
2017-11-16T02:00:20.979Z,101488
2017-11-16T02:02:54.557Z,101492
2017-11-16T02:05:31.407Z,101494
2017-11-16T02:07:59.968Z,101481
2017-11-16T02:10:28.853Z,101480
2017-11-16T02:12:57.602Z,101480
2017-11-16T02:15:27.643Z,101477
2017-11-16T02:17:56.834Z,101483
2017-11-16T02:20:25.471Z,101473
2017-11-16T02:22:54.026Z,101470
2017-11-16T02:25:22.580Z,101472
2017-11-16T02:27:51.115Z,101480
2017-11-16T02:30:21.450Z,101470
2017-11-16T02:32:50.886Z,101488
2017-11-16T02:35:19.525Z,101484
2017-11-16T02:37:48.029Z,101476
2017-11-16T02:40:17.720Z,101486
2017-11-16T02:42:46.776Z,101487
2017-11-16T02:45:15.327Z,101479
2017-11-16T02:47:44.579Z,101478
2017-11-16T02:50:13.768Z,101479
2017-11-16T02:52:42.629Z,101478
2017-11-16T02:55:10.996Z,101469
2017-11-16T02:57:39.457Z,101471
2017-11-16T03:00:11.642Z,101469
2017-11-16T03:02:40.219Z,101459
2017-11-16T03:05:09.035Z,101463
2017-11-16T03:07:38.209Z,101459
2017-11-16T03:10:07.613Z,101462
2017-11-16T03:12:36.207Z,101464
2017-11-16T03:15:05.134Z,101465
2017-11-16T03:17:34.608Z,101468
2017-11-16T03:20:02.960Z,101463
2017-11-16T03:22:34.166Z,101463
2017-11-16T03:25:02.878Z,101474
2017-11-16T03:27:32.110Z,101478
2017-11-16T03:30:01.062Z,101466
2017-11-16T03:32:30.476Z,101477
2017-11-16T03:35:00.829Z,101485
2017-11-16T03:37:29.215Z,101494
2017-11-16T03:39:57.722Z,101478
2017-11-16T03:42:26.078Z,101478
2017-11-16T03:44:54.413Z,101482
2017-11-16T03:47:22.737Z,101480
2017-11-16T03:49:51.114Z,101484
2017-11-16T03:52:19.558Z,101483
2017-11-16T03:54:50.084Z,101480
2017-11-16T03:57:19.056Z,101483
2017-11-16T03:59:48.190Z,101478
2017-11-16T04:02:16.658Z,101480
2017-11-16T04:04:44.915Z,101483
2017-11-16T04:07:13.941Z,101479
2017-11-16T04:09:42.295Z,101472
2017-11-16T04:12:11.378Z,101463
2017-11-16T04:14:41.543Z,101466
2017-11-16T04:17:09.839Z,101467
2017-11-16T04:19:38.230Z,101459
2017-11-16T04:22:06.823Z,101460
2017-11-16T04:24:35.118Z,101449
2017-11-16T04:27:04.442Z,101450
2017-11-16T04:29:32.726Z,101463
2017-11-16T04:32:01.147Z,101464
2017-11-16T04:34:29.783Z,101462
2017-11-16T04:36:58.432Z,101449
2017-11-16T04:39:26.740Z,101447
2017-11-16T04:41:55.286Z,101445
2017-11-16T04:44:23.675Z,101453
2017-11-16T04:46:51.981Z,101446
2017-11-16T04:49:20.400Z,101440
2017-11-16T04:51:48.681Z,101448
2017-11-16T04:54:17.096Z,101439
2017-11-16T04:56:46.292Z,101445
2017-11-16T04:59:15.462Z,101452
2017-11-16T05:01:43.787Z,101462
2017-11-16T05:04:12.703Z,101464
2017-11-16T05:06:42.679Z,101464
2017-11-16T05:09:12.468Z,101469
2017-11-16T05:11:42.400Z,101460
2017-11-16T05:14:12.436Z,101457
2017-11-16T05:16:41.819Z,101460
2017-11-16T05:19:13.890Z,101457
2017-11-16T05:21:42.547Z,101472
2017-11-16T05:24:11.179Z,101465
2017-11-16T05:26:40.813Z,101458
2017-11-16T05:29:10.255Z,101466
2017-11-16T05:31:39.688Z,101471
2017-11-16T05:34:09.000Z,101477
2017-11-16T05:36:37.908Z,101478
2017-11-16T05:39:06.286Z,101465
2017-11-16T05:41:36.100Z,101463
2017-11-16T05:44:05.046Z,101460
2017-11-16T05:46:33.739Z,101468
2017-11-16T05:49:04.157Z,101462
2017-11-16T05:51:32.786Z,101472
2017-11-16T05:54:01.796Z,101474
2017-11-16T05:56:31.148Z,101479
2017-11-16T05:59:00.810Z,101483
2017-11-16T06:01:29.497Z,101486
2017-11-16T06:04:00.019Z,101482
2017-11-16T06:06:28.880Z,101487
2017-11-16T06:08:59.033Z,101487
2017-11-16T06:11:28.330Z,101490
2017-11-16T06:13:57.473Z,101493
2017-11-16T06:16:26.734Z,101491
2017-11-16T06:18:58.331Z,101482
2017-11-16T06:21:27.279Z,101484
2017-11-16T06:23:55.677Z,101477
2017-11-16T06:26:27.357Z,101481
2017-11-16T06:28:56.853Z,101485
2017-11-16T06:31:25.188Z,101485
2017-11-16T06:33:55.080Z,101492
2017-11-16T06:36:23.765Z,101495
2017-11-16T06:38:53.065Z,101484
2017-11-16T06:41:21.598Z,101490
2017-11-16T06:43:50.717Z,101489
2017-11-16T06:46:19.341Z,101492
2017-11-16T06:48:48.172Z,101489
2017-11-16T06:51:18.196Z,101494
2017-11-16T06:53:50.421Z,101494
2017-11-16T06:56:19.400Z,101491
2017-11-16T06:58:48.432Z,101501
2017-11-16T07:01:16.952Z,101502
2017-11-16T07:03:45.672Z,101496
2017-11-16T07:06:14.426Z,101504
2017-11-16T07:08:42.825Z,101498
2017-11-16T07:11:14.381Z,101505
2017-11-16T07:13:42.673Z,101508
2017-11-16T07:16:12.125Z,101502
2017-11-16T07:18:41.632Z,101501
2017-11-16T07:21:10.137Z,101505
2017-11-16T07:23:38.750Z,101507
2017-11-16T07:26:08.156Z,101509
2017-11-16T07:28:37.838Z,101508
2017-11-16T07:31:06.532Z,101513
2017-11-16T07:33:35.035Z,101508
2017-11-16T07:36:04.530Z,101508
2017-11-16T07:38:38.655Z,101503
2017-11-16T07:41:08.317Z,101507
2017-11-16T07:43:36.590Z,101504
2017-11-16T07:46:07.140Z,101509
2017-11-16T07:48:35.467Z,101508
2017-11-16T07:51:04.996Z,101510
2017-11-16T07:53:34.299Z,101498
2017-11-16T07:56:02.781Z,101494
2017-11-16T07:58:32.168Z,101494
2017-11-16T08:01:00.700Z,101501
2017-11-16T08:03:30.657Z,101497
2017-11-16T08:06:00.374Z,101496
2017-11-16T08:08:29.876Z,101489
2017-11-16T08:10:58.813Z,101492
2017-11-16T08:13:27.245Z,101499
2017-11-16T08:15:55.789Z,101496
2017-11-16T08:18:24.991Z,101494
2017-11-16T08:20:54.806Z,101494
2017-11-16T08:23:23.608Z,101494
2017-11-16T08:25:52.084Z,101491
2017-11-16T08:28:28.613Z,101483
2017-11-16T08:30:57.754Z,101476
2017-11-16T08:33:26.544Z,101486
2017-11-16T08:35:55.869Z,101480
2017-11-16T08:38:25.221Z,101473
2017-11-16T08:40:54.809Z,101476
2017-11-16T08:43:23.376Z,101474
2017-11-16T08:45:52.467Z,101471
2017-11-16T08:48:20.874Z,101474
2017-11-16T08:50:52.050Z,101469
2017-11-16T08:53:21.256Z,101467
2017-11-16T08:55:49.929Z,101476
2017-11-16T08:58:20.256Z,101473
2017-11-16T09:00:49.228Z,101469
2017-11-16T09:03:17.669Z,101464
2017-11-16T09:05:46.187Z,101469
2017-11-16T09:08:14.612Z,101471
2017-11-16T09:10:42.976Z,101466
2017-11-16T09:13:11.415Z,101461
2017-11-16T09:15:40.504Z,101458
2017-11-16T09:18:08.858Z,101456
2017-11-16T09:20:38.006Z,101462
2017-11-16T09:23:07.057Z,101461
2017-11-16T09:25:35.428Z,101453
2017-11-16T09:28:05.676Z,101456
2017-11-16T09:30:33.966Z,101453
2017-11-16T09:33:03.183Z,101444
2017-11-16T09:35:31.553Z,101445
2017-11-16T09:38:00.677Z,101453
2017-11-16T09:40:29.025Z,101443
2017-11-16T09:42:58.098Z,101438
2017-11-16T09:45:26.476Z,101428
2017-11-16T09:47:55.923Z,101428
2017-11-16T09:50:25.393Z,101433
2017-11-16T09:52:53.684Z,101431
2017-11-16T09:55:23.595Z,101423
2017-11-16T09:57:52.233Z,101433
2017-11-16T10:00:20.977Z,101431
2017-11-16T10:02:50.044Z,101425
2017-11-16T10:05:18.493Z,101420
2017-11-16T10:07:47.074Z,101431
2017-11-16T10:10:15.556Z,101424
2017-11-16T10:12:44.126Z,101421
2017-11-16T10:15:12.828Z,101417
2017-11-16T10:17:44.893Z,101423
2017-11-16T10:20:14.547Z,101427
2017-11-16T10:22:45.162Z,101428
2017-11-16T10:25:14.753Z,101425
2017-11-16T10:27:43.188Z,101426
2017-11-16T10:30:12.011Z,101421
2017-11-16T10:32:40.864Z,101421
2017-11-16T10:35:10.154Z,101416
2017-11-16T10:37:39.949Z,101412
2017-11-16T10:40:10.056Z,101407
2017-11-16T10:42:42.052Z,101409
2017-11-16T10:45:10.575Z,101400
2017-11-16T10:47:39.343Z,101394
2017-11-16T10:50:09.078Z,101401
2017-11-16T10:52:37.494Z,101394
2017-11-16T10:55:07.164Z,101399
2017-11-16T10:57:37.230Z,101389
2017-11-16T11:00:05.647Z,101389
2017-11-16T11:02:33.891Z,101387
2017-11-16T11:05:02.756Z,101383
2017-11-16T11:07:32.038Z,101387
2017-11-16T11:10:00.843Z,101384
2017-11-16T11:12:31.119Z,101374
2017-11-16T11:14:59.386Z,101375
2017-11-16T11:17:27.702Z,101378
2017-11-16T11:19:56.308Z,101373
2017-11-16T11:22:25.350Z,101368
2017-11-16T11:24:53.801Z,101362
2017-11-16T11:27:22.835Z,101373
2017-11-16T11:29:53.872Z,101368
2017-11-16T11:32:22.983Z,101363
2017-11-16T11:34:51.285Z,101355
2017-11-16T11:37:20.807Z,101349
2017-11-16T11:39:49.524Z,101360
2017-11-16T11:42:18.689Z,101360
2017-11-16T11:44:47.592Z,101363
2017-11-16T11:47:15.995Z,101349
2017-11-16T11:49:44.447Z,101365
2017-11-16T11:52:13.977Z,101352
2017-11-16T11:54:43.124Z,101360
2017-11-16T11:57:12.495Z,101358
2017-11-16T11:59:40.961Z,101358
2017-11-16T12:02:12.198Z,101351
2017-11-16T12:04:41.396Z,101357
2017-11-16T12:07:10.023Z,101340
2017-11-16T12:09:39.707Z,101337
2017-11-16T12:12:08.111Z,101340
2017-11-16T12:14:37.253Z,101336
2017-11-16T12:17:05.854Z,101337
2017-11-16T12:19:35.079Z,101333
2017-11-16T12:22:03.517Z,101327
2017-11-16T12:24:32.721Z,101324
2017-11-16T12:27:01.038Z,101320
2017-11-16T12:29:29.421Z,101316
2017-11-16T12:32:00.424Z,101319
2017-11-16T12:34:28.695Z,101320
2017-11-16T12:36:57.908Z,101320
2017-11-16T12:39:26.272Z,101309
2017-11-16T12:41:56.102Z,101313
2017-11-16T12:44:24.647Z,101310
2017-11-16T12:46:54.071Z,101299
2017-11-16T12:49:22.387Z,101304
2017-11-16T12:51:52.254Z,101298
2017-11-16T12:54:20.615Z,101303
2017-11-16T12:56:49.595Z,101296
2017-11-16T12:59:18.452Z,101287
2017-11-16T13:01:48.433Z,101297
2017-11-16T13:04:16.930Z,101292
2017-11-16T13:06:45.255Z,101291
2017-11-16T13:09:13.643Z,101276
2017-11-16T13:11:42.470Z,101281
2017-11-16T13:14:10.941Z,101281
2017-11-16T13:16:40.491Z,101273
2017-11-16T13:19:10.744Z,101277
2017-11-16T13:21:40.288Z,101270
2017-11-16T13:24:09.845Z,101272
2017-11-16T13:26:38.231Z,101278
2017-11-16T13:29:06.781Z,101273
2017-11-16T13:31:36.103Z,101268
2017-11-16T13:34:05.493Z,101275
2017-11-16T13:36:35.125Z,101273
2017-11-16T13:39:03.705Z,101266
2017-11-16T13:41:32.560Z,101270
2017-11-16T13:44:01.126Z,101256
2017-11-16T13:46:31.065Z,101267
2017-11-16T13:49:00.835Z,101260
2017-11-16T13:51:29.657Z,101260
2017-11-16T13:53:58.473Z,101261
2017-11-16T13:56:27.534Z,101263
2017-11-16T13:58:57.032Z,101254
2017-11-16T14:01:27.087Z,101258
2017-11-16T14:03:56.631Z,101251
2017-11-16T14:06:26.176Z,101249
2017-11-16T14:08:56.769Z,101253
2017-11-16T14:11:25.459Z,101255
2017-11-16T14:13:54.035Z,101260
2017-11-16T14:16:23.357Z,101255
2017-11-16T14:18:52.665Z,101260
2017-11-16T14:21:22.019Z,101261
2017-11-16T14:23:52.552Z,101258
2017-11-16T14:26:21.575Z,101260
2017-11-16T14:28:51.125Z,101258
2017-11-16T14:31:19.504Z,101256
2017-11-16T14:33:48.784Z,101254
2017-11-16T14:36:17.367Z,101252
2017-11-16T14:38:46.470Z,101257
2017-11-16T14:41:15.245Z,101251
2017-11-16T14:43:43.872Z,101245
2017-11-16T14:46:13.116Z,101249
2017-11-16T14:48:42.910Z,101245
2017-11-16T14:51:12.327Z,101248
2017-11-16T14:53:44.121Z,101238
2017-11-16T14:56:12.730Z,101240
2017-11-16T14:58:42.175Z,101233
2017-11-16T15:01:11.653Z,101235
2017-11-16T15:03:40.664Z,101231
2017-11-16T15:06:10.099Z,101235
2017-11-16T15:08:41.589Z,101232
2017-11-16T15:11:10.267Z,101231
2017-11-16T15:13:39.399Z,101229
2017-11-16T15:16:08.012Z,101222
2017-11-16T15:18:36.887Z,101217
2017-11-16T15:21:06.409Z,101238
2017-11-16T15:23:35.004Z,101230
2017-11-16T15:26:03.451Z,101230
2017-11-16T15:28:32.474Z,101222
2017-11-16T15:31:00.951Z,101226
2017-11-16T15:33:29.656Z,101226
2017-11-16T15:35:59.465Z,101228
2017-11-16T15:38:27.898Z,101230
2017-11-16T15:40:59.331Z,101226
2017-11-16T15:43:28.344Z,101221
2017-11-16T15:46:01.420Z,101217
2017-11-16T15:48:31.082Z,101216
2017-11-16T15:50:59.576Z,101221
2017-11-16T15:53:28.121Z,101219
2017-11-16T15:55:57.721Z,101227
2017-11-16T15:58:26.332Z,101220
2017-11-16T16:00:55.875Z,101222
2017-11-16T16:03:24.352Z,101217
2017-11-16T16:05:53.993Z,101214
2017-11-16T16:08:23.503Z,101215
2017-11-16T16:10:52.394Z,101219
2017-11-16T16:13:21.426Z,101214
2017-11-16T16:15:51.307Z,101214
2017-11-16T16:18:19.984Z,101204
2017-11-16T16:20:49.826Z,101202
2017-11-16T16:23:19.134Z,101209
2017-11-16T16:25:48.792Z,101210
2017-11-16T16:28:19.769Z,101209
2017-11-16T16:30:50.153Z,101210
2017-11-16T16:33:18.690Z,101213
2017-11-16T16:35:47.129Z,101204
2017-11-16T16:38:16.404Z,101209
2017-11-16T16:40:44.745Z,101206
2017-11-16T16:43:13.060Z,101212
2017-11-16T16:45:41.668Z,101213
2017-11-16T16:48:11.572Z,101209
2017-11-16T16:50:42.019Z,101209
2017-11-16T16:53:20.831Z,101202
2017-11-16T16:55:50.206Z,101201
2017-11-16T16:58:19.527Z,101197
2017-11-16T17:00:49.527Z,101203
2017-11-16T17:03:18.386Z,101207
2017-11-16T17:05:48.722Z,101202
2017-11-16T17:08:17.017Z,101200
2017-11-16T17:10:46.179Z,101193
2017-11-16T17:13:15.456Z,101203
2017-11-16T17:15:43.991Z,101185
2017-11-16T17:18:12.666Z,101189
2017-11-16T17:20:42.168Z,101190
2017-11-16T17:23:11.778Z,101193
2017-11-16T17:25:40.114Z,101192
2017-11-16T17:28:08.827Z,101182
2017-11-16T17:30:40.528Z,101178
2017-11-16T17:33:09.273Z,101177
2017-11-16T17:35:39.683Z,101180
2017-11-16T17:38:15.240Z,101187
2017-11-16T17:40:43.773Z,101191
2017-11-16T17:43:13.551Z,101185
2017-11-16T17:45:42.274Z,101186
2017-11-16T17:48:13.105Z,101183
2017-11-16T17:50:42.451Z,101185
2017-11-16T17:53:13.984Z,101189
2017-11-16T17:55:43.095Z,101196
2017-11-16T17:58:12.457Z,101197
2017-11-16T18:00:41.974Z,101195
2017-11-16T18:03:14.539Z,101195
2017-11-16T18:05:43.947Z,101195
2017-11-16T18:08:12.228Z,101179
2017-11-16T18:10:40.481Z,101174
2017-11-16T18:13:09.700Z,101173
2017-11-16T18:15:37.977Z,101173
2017-11-16T18:18:06.321Z,101174
2017-11-16T18:20:34.696Z,101182
2017-11-16T18:23:03.064Z,101181
2017-11-16T18:25:31.423Z,101168
2017-11-16T18:27:59.896Z,101175
2017-11-16T18:30:28.480Z,101170
2017-11-16T18:32:57.065Z,101171
2017-11-16T18:35:27.319Z,101166
2017-11-16T18:41:27.350Z,101164
2017-11-16T18:43:58.419Z,101162
2017-11-16T18:46:27.612Z,101164
2017-11-16T18:51:40.675Z,101163
2017-11-16T18:56:50.057Z,101151
2017-11-16T18:59:19.012Z,101157
2017-11-16T19:01:48.560Z,101153
2017-11-16T19:04:19.155Z,101156
2017-11-16T19:09:22.299Z,101150
2017-11-16T19:11:50.655Z,101159
2017-11-16T19:14:19.042Z,101164
2017-11-16T19:16:47.504Z,101152
2017-11-16T19:19:16.502Z,101142
2017-11-16T19:21:46.594Z,101144
2017-11-16T19:24:16.373Z,101145
2017-11-16T19:26:44.667Z,101133
2017-11-16T19:29:15.246Z,101144
2017-11-16T19:31:43.879Z,101133
2017-11-16T19:34:15.388Z,101134
2017-11-16T19:36:44.645Z,101137
2017-11-16T19:39:15.605Z,101132
2017-11-16T19:41:46.240Z,101131
2017-11-16T19:44:14.620Z,101126
2017-11-16T19:46:45.478Z,101117
2017-11-16T19:56:59.666Z,101116
2017-11-16T19:59:30.310Z,101120
2017-11-16T20:02:01.759Z,101119
2017-11-16T20:04:30.099Z,101105
2017-11-16T20:06:58.768Z,101112
2017-11-16T20:09:29.646Z,101109
2017-11-16T20:11:59.004Z,101101
2017-11-16T20:14:28.092Z,101103
2017-11-16T20:16:57.319Z,101110
2017-11-16T20:19:28.126Z,101114
2017-11-16T20:22:01.488Z,101117
2017-11-16T20:24:30.006Z,101105
2017-11-16T20:26:58.502Z,101112
2017-11-16T20:29:28.085Z,101114
2017-11-16T20:31:57.292Z,101127
2017-11-16T20:34:26.063Z,101122
2017-11-16T20:37:10.347Z,101105
2017-11-16T20:39:41.975Z,101100
2017-11-16T20:42:16.184Z,101089
2017-11-16T20:44:51.035Z,101076
2017-11-16T20:47:26.210Z,101082
2017-11-16T20:53:32.721Z,101076
2017-11-16T20:56:01.343Z,101080
2017-11-16T20:58:30.535Z,101069
2017-11-16T21:00:59.421Z,101073
2017-11-16T21:03:28.785Z,101066
2017-11-16T21:05:57.077Z,101066
2017-11-16T21:08:25.467Z,101059
2017-11-16T21:10:55.488Z,101061
2017-11-16T21:13:23.825Z,101064
2017-11-16T21:15:52.376Z,101061
2017-11-16T21:18:20.707Z,101063
2017-11-16T21:20:48.983Z,101056
2017-11-16T21:23:17.573Z,101056
2017-11-16T21:25:47.204Z,101051
2017-11-16T21:28:16.784Z,101068
2017-11-16T21:30:45.069Z,101070
2017-11-16T21:33:14.276Z,101077
2017-11-16T21:35:43.879Z,101068
2017-11-16T21:38:13.516Z,101062
2017-11-16T21:40:42.712Z,101062
2017-11-16T21:43:11.179Z,101059
2017-11-16T21:45:39.641Z,101065
2017-11-16T21:48:08.068Z,101065
2017-11-16T21:50:39.953Z,101062
2017-11-16T21:53:08.935Z,101060
2017-11-16T21:55:37.851Z,101061
2017-11-16T21:58:06.298Z,101055
2017-11-16T22:00:34.777Z,101052
2017-11-16T22:03:03.071Z,101049
2017-11-16T22:05:31.584Z,101050
2017-11-16T22:08:00.828Z,101060
2017-11-16T22:10:29.368Z,101067
2017-11-16T22:12:58.400Z,101067
2017-11-16T22:15:26.631Z,101070
2017-11-16T22:17:56.855Z,101064
2017-11-16T22:20:26.159Z,101058
2017-11-16T22:22:54.611Z,101055
2017-11-16T22:25:22.975Z,101066
2017-11-16T22:27:53.977Z,101057
2017-11-16T22:30:22.588Z,101053
2017-11-16T22:32:51.010Z,101054
2017-11-16T22:35:20.015Z,101055
2017-11-16T22:37:49.963Z,101047
2017-11-16T22:40:18.302Z,101044
2017-11-16T22:42:46.951Z,101039
2017-11-16T22:45:16.329Z,101037
2017-11-16T22:47:45.143Z,101033
2017-11-16T22:50:13.480Z,101032
2017-11-16T22:52:41.945Z,101023
2017-11-16T22:55:11.029Z,101022
2017-11-16T22:57:40.457Z,101019
2017-11-16T23:00:08.869Z,101023
2017-11-16T23:02:37.498Z,101018
2017-11-16T23:05:08.243Z,101008
2017-11-16T23:07:36.757Z,101008
2017-11-16T23:10:06.095Z,101017
2017-11-16T23:12:35.171Z,101018
2017-11-16T23:15:03.476Z,101011
2017-11-16T23:17:32.672Z,101012
2017-11-16T23:20:03.310Z,101013
2017-11-16T23:22:31.705Z,101017
2017-11-16T23:25:00.955Z,101014
2017-11-16T23:27:29.275Z,101006
2017-11-16T23:29:58.969Z,101003
2017-11-16T23:32:27.391Z,101010
2017-11-16T23:34:55.810Z,101004
2017-11-16T23:37:24.707Z,101007
2017-11-16T23:39:52.972Z,101006
2017-11-16T23:42:21.611Z,100999
2017-11-16T23:44:50.079Z,101005
2017-11-16T23:47:18.439Z,101009
2017-11-16T23:49:47.712Z,101001
2017-11-16T23:52:16.107Z,101006
2017-11-16T23:54:44.629Z,100996
2017-11-16T23:57:13.036Z,101007
2017-11-16T23:59:41.308Z,100993
